createdAt,value
2019-01-23T05:01:45.855Z,22.87
2019-01-23T05:04:20.992Z,23.73
2019-01-23T05:06:56.152Z,23.13
2019-01-23T05:09:31.211Z,23.83
2019-01-23T05:12:06.260Z,25.00
2019-01-23T05:14:41.348Z,23.77
2019-01-23T06:01:41.967Z,23.60
2019-01-23T06:04:16.799Z,26.80
2019-01-23T06:06:52.010Z,25.37
2019-01-23T06:09:14.443Z,24.53
2019-01-23T06:11:56.356Z,24.70
2019-01-23T06:14:31.407Z,25.27
2019-01-23T07:02:53.795Z,25.47
2019-01-23T07:05:28.930Z,26.10
2019-01-23T07:08:03.792Z,24.73
2019-01-23T07:10:39.022Z,26.73
2019-01-23T07:13:14.080Z,27.60
2019-01-23T08:02:30.023Z,24.93
2019-01-23T08:04:52.494Z,25.53
2019-01-23T08:07:27.542Z,24.47
2019-01-23T08:10:02.749Z,23.17
2019-01-23T08:12:38.792Z,25.13
2019-01-23T09:01:59.107Z,24.63
2019-01-23T09:04:35.499Z,23.77
2019-01-23T09:07:10.499Z,22.63
2019-01-23T09:09:45.493Z,23.63
2019-01-23T09:12:20.649Z,24.33
2019-01-23T09:14:55.605Z,25.77
2019-01-23T10:00:14.820Z,22.50
2019-01-23T10:02:51.370Z,22.50
2019-01-23T10:05:26.964Z,24.47
2019-01-23T10:08:01.506Z,25.23
2019-01-23T10:10:24.969Z,26.43
2019-01-23T10:13:06.955Z,24.63
2019-01-23T11:00:15.951Z,24.07
2019-01-23T11:02:51.435Z,22.83
2019-01-23T11:05:28.008Z,23.60
2019-01-23T11:08:03.026Z,23.97
2019-01-23T11:10:38.178Z,23.97
2019-01-23T11:13:13.243Z,23.93
2019-01-23T12:00:13.971Z,24.27
2019-01-23T12:02:49.623Z,25.47
2019-01-23T12:05:24.407Z,23.33
2019-01-23T12:07:47.196Z,24.23
2019-01-23T12:10:12.817Z,21.70
2019-01-23T12:12:35.386Z,26.07
2019-01-23T12:14:57.915Z,23.97
2019-01-23T13:00:38.721Z,24.73
2019-01-23T13:03:02.381Z,24.60
2019-01-23T13:05:25.048Z,24.60
2019-01-23T13:07:47.584Z,24.00
2019-01-23T13:10:22.607Z,25.33
2019-01-23T13:12:57.956Z,24.97
2019-01-23T14:00:29.127Z,23.93
2019-01-23T14:02:51.714Z,24.23
2019-01-23T14:05:14.652Z,23.43
2019-01-23T14:07:38.211Z,23.97
2019-01-23T14:10:00.757Z,22.70
2019-01-23T14:12:23.226Z,21.63
2019-01-23T14:14:45.978Z,22.00
2019-01-23T15:02:10.357Z,27.77
2019-01-23T15:04:33.093Z,26.80
2019-01-23T15:06:55.631Z,27.77
2019-01-23T15:09:18.173Z,24.57
2019-01-23T15:11:40.619Z,26.67
2019-01-23T15:14:03.666Z,27.77
2019-01-23T15:16:26.146Z,27.67
2019-01-23T15:18:48.702Z,26.20
2019-01-23T15:21:11.330Z,26.77
2019-01-23T15:23:33.882Z,25.43
2019-01-23T15:25:56.651Z,25.20
2019-01-23T15:28:31.155Z,27.17
2019-01-23T15:30:53.641Z,26.90
2019-01-23T15:33:16.198Z,24.70
2019-01-23T15:35:39.815Z,26.17
2019-01-23T15:38:02.307Z,26.30
2019-01-23T15:40:27.627Z,26.97
2019-01-23T15:42:50.342Z,26.33
2019-01-23T15:45:14.917Z,25.30
2019-01-23T15:47:37.537Z,24.23
2019-01-23T15:50:00.218Z,24.97
2019-01-23T15:52:22.709Z,26.53
2019-01-23T15:54:45.431Z,26.83
2019-01-23T15:57:08.576Z,25.97
2019-01-23T15:59:31.539Z,26.93
2019-01-23T16:01:54.010Z,26.63
2019-01-23T16:04:16.428Z,26.60
2019-01-23T16:06:39.585Z,29.03
2019-01-23T16:09:04.179Z,26.33
2019-01-23T16:11:27.816Z,26.27
2019-01-23T16:13:50.380Z,26.67
2019-01-23T17:02:01.434Z,27.10
2019-01-23T17:04:23.902Z,28.77
2019-01-23T17:06:46.401Z,29.03
2019-01-23T17:09:09.059Z,29.50
2019-01-23T17:11:31.595Z,28.87
2019-01-23T17:13:54.151Z,28.47
2019-01-23T18:15:25.443Z,29.37
2019-01-23T18:17:47.947Z,28.80
2019-01-23T18:20:13.664Z,28.87
2019-01-23T18:22:36.550Z,29.20
2019-01-23T18:25:11.785Z,29.27
2019-01-23T18:27:46.654Z,28.43
2019-01-23T19:02:35.865Z,26.30
2019-01-23T19:04:58.635Z,25.60
2019-01-23T19:07:21.162Z,25.53
2019-01-23T19:09:43.594Z,23.37
2019-01-23T19:12:06.342Z,25.00
2019-01-23T19:14:28.930Z,23.70
2019-01-23T20:02:17.834Z,22.87
2019-01-23T20:04:41.422Z,22.93
2019-01-23T20:07:03.964Z,22.40
2019-01-23T20:09:26.523Z,21.27
2019-01-23T20:11:49.806Z,20.90
2019-01-23T20:14:12.359Z,21.67
2019-01-23T21:01:54.477Z,25.17
2019-01-23T21:04:17.006Z,26.50
2019-01-23T21:06:39.436Z,25.23
2019-01-23T21:09:01.900Z,26.77
2019-01-23T21:11:26.230Z,26.43
2019-01-23T21:13:48.798Z,24.57
